createdAt,value
2018-03-21T00:00:48.687Z,1019.92
2018-03-21T00:01:48.690Z,1019.95
2018-03-21T00:02:48.701Z,1019.96
2018-03-21T00:03:48.713Z,1019.94
2018-03-21T00:04:48.735Z,1019.93
2018-03-21T00:05:48.737Z,1020
2018-03-21T00:06:48.760Z,1019.99
2018-03-21T00:07:48.761Z,1020.03
2018-03-21T00:08:48.774Z,1020
2018-03-21T00:09:48.785Z,1020.01
2018-03-21T00:10:48.810Z,1020
2018-03-21T00:12:48.825Z,1020.05
2018-03-21T00:13:48.833Z,1020.01
2018-03-21T00:14:48.850Z,1020.07
2018-03-21T00:15:48.858Z,1020.06
2018-03-21T00:16:48.880Z,1020.08
2018-03-21T00:17:48.881Z,1020.1
2018-03-21T00:18:48.895Z,1020.09
2018-03-21T00:19:48.906Z,1020.08
2018-03-21T00:20:48.917Z,1020.04
2018-03-21T00:21:48.930Z,1020.08
2018-03-21T00:22:48.955Z,1020.09
2018-03-21T00:23:48.958Z,1020.04
2018-03-21T00:24:48.975Z,1020.04
2018-03-21T00:25:48.978Z,1020.05
2018-03-21T00:26:48.999Z,1020.08
2018-03-21T00:28:49.020Z,1020.09
2018-03-21T00:29:49.029Z,1020.07
2018-03-21T00:30:49.038Z,1020.08
2018-03-21T00:31:49.057Z,1020.08
2018-03-21T00:32:49.073Z,1020.1
2018-03-21T00:33:49.073Z,1020.11
2018-03-21T00:34:49.087Z,1020.13
2018-03-21T00:35:49.097Z,1020.18
2018-03-21T00:36:49.118Z,1020.14
2018-03-21T00:37:49.121Z,1020.19
2018-03-21T00:38:49.140Z,1020.2
2018-03-21T00:39:49.145Z,1020.2
2018-03-21T00:40:49.165Z,1020.19
2018-03-21T00:41:49.170Z,1020.2
2018-03-21T00:42:49.227Z,1020.2
2018-03-21T00:44:49.215Z,1020.27
2018-03-21T00:45:49.217Z,1020.26
2018-03-21T00:46:49.228Z,1020.28
2018-03-21T00:47:49.240Z,1020.29
2018-03-21T00:48:49.253Z,1020.29
2018-03-21T00:49:49.264Z,1020.29
2018-03-21T00:50:49.287Z,1020.28
2018-03-21T00:51:49.288Z,1020.29
2018-03-21T00:52:49.300Z,1020.3
2018-03-21T00:53:49.312Z,1020.27
2018-03-21T00:54:49.329Z,1020.28
2018-03-21T00:55:49.336Z,1020.32
2018-03-21T00:56:49.361Z,1020.28
2018-03-21T00:57:49.360Z,1020.27
2018-03-21T00:59:49.384Z,1020.3
2018-03-21T01:00:49.396Z,1020.31
2018-03-21T01:01:49.407Z,1020.32
2018-03-21T01:02:49.419Z,1020.3
2018-03-21T01:03:49.531Z,1020.35
2018-03-21T01:04:49.447Z,1020.37
2018-03-21T01:05:49.454Z,1020.34
2018-03-21T01:06:49.477Z,1020.36
2018-03-21T01:07:49.476Z,1020.38
2018-03-21T01:08:49.490Z,1020.38
2018-03-21T01:09:49.502Z,1020.38
2018-03-21T01:10:49.529Z,1020.41
2018-03-21T01:11:49.525Z,1020.4
2018-03-21T01:12:49.544Z,1020.42
2018-03-21T01:13:49.549Z,1020.45
2018-03-21T01:14:49.561Z,1020.47
2018-03-21T01:15:49.571Z,1020.49
2018-03-21T01:16:49.595Z,1020.45
2018-03-21T01:17:49.596Z,1020.46
2018-03-21T01:18:49.616Z,1020.45
2018-03-21T01:19:49.619Z,1020.46
2018-03-21T01:20:49.642Z,1020.47
2018-03-21T01:21:49.643Z,1020.48
2018-03-21T01:22:49.661Z,1020.47
2018-03-21T01:23:49.666Z,1020.47
2018-03-21T01:24:49.680Z,1020.48
2018-03-21T01:25:49.690Z,1020.45
2018-03-21T01:26:49.701Z,1020.44
2018-03-21T01:27:49.714Z,1020.5
2018-03-21T01:28:49.739Z,1020.51
2018-03-21T01:29:49.737Z,1020.49
2018-03-21T01:31:49.760Z,1020.5
2018-03-21T01:32:49.772Z,1020.51
2018-03-21T01:33:49.784Z,1020.5
2018-03-21T01:34:49.795Z,1020.48
2018-03-21T01:35:49.807Z,1020.56
2018-03-21T01:36:49.824Z,1020.54
2018-03-21T01:37:49.831Z,1020.55
2018-03-21T01:38:49.841Z,1020.51
2018-03-21T01:39:49.854Z,1020.54
2018-03-21T01:40:49.864Z,1020.53
2018-03-21T01:41:49.875Z,1020.56
2018-03-21T01:42:49.887Z,1020.57
2018-03-21T01:43:49.901Z,1020.56
2018-03-21T01:44:49.912Z,1020.55
2018-03-21T01:45:49.929Z,1020.55
2018-03-21T01:47:49.948Z,1020.59
2018-03-21T01:48:49.959Z,1020.57
2018-03-21T01:49:49.971Z,1020.6
2018-03-21T01:50:49.983Z,1020.59
2018-03-21T01:51:49.994Z,1020.65
2018-03-21T01:52:50.005Z,1020.66
2018-03-21T01:53:50.018Z,1020.66
2018-03-21T01:54:50.029Z,1020.67
2018-03-21T01:55:50.040Z,1020.69
2018-03-21T01:56:50.058Z,1020.69
2018-03-21T01:57:50.064Z,1020.68
2018-03-21T01:58:50.076Z,1020.68
2018-03-21T01:59:50.088Z,1020.7
2018-03-21T02:00:50.099Z,1020.75
2018-03-21T02:01:50.111Z,1020.72
2018-03-21T02:03:50.134Z,1020.7
2018-03-21T02:04:50.144Z,1020.69
2018-03-21T02:05:50.157Z,1020.77
2018-03-21T02:06:50.168Z,1020.72
2018-03-21T02:07:50.178Z,1020.74
2018-03-21T02:08:50.190Z,1020.68
2018-03-21T02:09:50.203Z,1020.72
2018-03-21T02:10:50.214Z,1020.7
2018-03-21T02:11:50.226Z,1020.7
2018-03-21T02:12:50.238Z,1020.75
2018-03-21T02:13:50.249Z,1020.75
2018-03-21T02:14:50.261Z,1020.73
2018-03-21T02:15:50.272Z,1020.73
2018-03-21T02:16:50.284Z,1020.71
2018-03-21T02:17:50.295Z,1020.73
2018-03-21T02:19:50.319Z,1020.71
2018-03-21T02:20:50.330Z,1020.7
2018-03-21T02:21:50.341Z,1020.69
2018-03-21T02:22:50.353Z,1020.74
2018-03-21T02:23:50.364Z,1020.69
2018-03-21T02:24:50.376Z,1020.71
2018-03-21T02:25:50.388Z,1020.72
2018-03-21T02:26:50.399Z,1020.74
2018-03-21T02:27:50.410Z,1020.74
2018-03-21T02:28:50.422Z,1020.73
2018-03-21T02:29:50.433Z,1020.74
2018-03-21T02:30:50.445Z,1020.72
2018-03-21T02:31:50.457Z,1020.75
2018-03-21T02:32:50.470Z,1020.72
2018-03-21T02:34:50.493Z,1020.72
2018-03-21T02:35:50.503Z,1020.69
2018-03-21T02:36:50.516Z,1020.72
2018-03-21T02:37:50.526Z,1020.71
2018-03-21T02:38:50.539Z,1020.7
2018-03-21T02:39:50.549Z,1020.7
2018-03-21T02:40:50.561Z,1020.74
2018-03-21T02:41:50.573Z,1020.72
2018-03-21T02:42:50.584Z,1020.73
2018-03-21T02:43:50.595Z,1020.73
2018-03-21T02:44:50.604Z,1020.74
2018-03-21T02:45:50.619Z,1020.73
2018-03-21T02:46:50.629Z,1020.73
2018-03-21T02:47:50.641Z,1020.73
2018-03-21T02:48:50.653Z,1020.77
2018-03-21T02:49:50.669Z,1020.76
2018-03-21T02:50:50.675Z,1020.77
2018-03-21T02:51:50.688Z,1020.78
2018-03-21T02:52:50.697Z,1020.75
2018-03-21T02:53:50.709Z,1020.8
2018-03-21T02:54:50.720Z,1020.75
2018-03-21T02:55:50.732Z,1020.74
2018-03-21T02:56:50.744Z,1020.74
2018-03-21T02:57:50.754Z,1020.75
2018-03-21T02:58:50.868Z,1020.76
2018-03-21T02:59:50.778Z,1020.76
2018-03-21T03:00:50.791Z,1020.76
2018-03-21T03:01:50.801Z,1020.75
2018-03-21T03:02:50.812Z,1020.76
2018-03-21T03:03:50.824Z,1020.8
2018-03-21T03:04:50.839Z,1020.76
2018-03-21T03:06:50.858Z,1020.8
2018-03-21T03:07:50.870Z,1020.78
2018-03-21T03:08:50.880Z,1020.8
2018-03-21T03:09:50.891Z,1020.75
2018-03-21T03:10:50.903Z,1020.74
2018-03-21T03:11:50.915Z,1020.8
2018-03-21T03:12:50.925Z,1020.78
2018-03-21T03:13:50.938Z,1020.77
2018-03-21T03:14:50.949Z,1020.75
2018-03-21T03:15:50.968Z,1020.77
2018-03-21T03:16:50.973Z,1020.77
2018-03-21T03:17:50.983Z,1020.79
2018-03-21T03:18:50.994Z,1020.78
2018-03-21T03:19:51.006Z,1020.71
2018-03-21T03:20:51.017Z,1020.74
2018-03-21T03:22:51.040Z,1020.72
2018-03-21T03:23:51.051Z,1020.71
2018-03-21T03:24:51.063Z,1020.69
2018-03-21T03:25:51.074Z,1020.7
2018-03-21T03:26:51.085Z,1020.72
2018-03-21T03:27:51.097Z,1020.74
2018-03-21T03:28:51.108Z,1020.72
2018-03-21T03:29:51.119Z,1020.74
2018-03-21T03:30:51.132Z,1020.75
2018-03-21T03:31:51.142Z,1020.77
2018-03-21T03:32:51.154Z,1020.78
2018-03-21T03:33:51.165Z,1020.73
2018-03-21T03:34:51.178Z,1020.74
2018-03-21T03:35:51.188Z,1020.73
2018-03-21T03:36:51.199Z,1020.72
2018-03-21T03:38:51.222Z,1020.78
2018-03-21T03:39:51.232Z,1020.73
2018-03-21T03:40:51.245Z,1020.8
2018-03-21T03:41:51.256Z,1020.76
2018-03-21T03:42:51.267Z,1020.82
2018-03-21T03:43:51.278Z,1020.76
2018-03-21T03:44:51.290Z,1020.81
2018-03-21T03:45:51.301Z,1020.79
2018-03-21T03:46:51.312Z,1020.8
2018-03-21T03:47:51.324Z,1020.82
2018-03-21T03:48:51.334Z,1020.84
2018-03-21T03:49:51.347Z,1020.82
2018-03-21T03:50:51.358Z,1020.82
2018-03-21T03:51:51.369Z,1020.83
2018-03-21T03:52:51.379Z,1020.8
2018-03-21T03:54:51.407Z,1020.79
2018-03-21T03:55:51.415Z,1020.83
2018-03-21T03:56:51.425Z,1020.79
2018-03-21T03:57:51.436Z,1020.75
2018-03-21T03:58:51.447Z,1020.75
2018-03-21T03:59:51.464Z,1020.77
2018-03-21T04:00:51.470Z,1020.76
2018-03-21T04:01:51.481Z,1020.78
2018-03-21T04:02:51.493Z,1020.76
2018-03-21T04:03:51.502Z,1020.73
2018-03-21T04:04:51.515Z,1020.77
2018-03-21T04:05:51.527Z,1020.75
2018-03-21T04:06:51.538Z,1020.74
2018-03-21T04:07:51.550Z,1020.75
2018-03-21T04:09:51.573Z,1020.75
2018-03-21T04:10:51.583Z,1020.72
2018-03-21T04:11:51.594Z,1020.78
2018-03-21T04:12:51.604Z,1020.77
2018-03-21T04:13:51.618Z,1020.77
2018-03-21T04:14:51.628Z,1020.75
2018-03-21T04:15:51.638Z,1020.79
2018-03-21T04:16:51.650Z,1020.77
2018-03-21T04:17:51.661Z,1020.79
2018-03-21T04:18:51.672Z,1020.78
2018-03-21T04:19:51.683Z,1020.79
2018-03-21T04:20:51.696Z,1020.76
2018-03-21T04:21:51.705Z,1020.78
2018-03-21T04:22:51.718Z,1020.8
2018-03-21T04:23:51.729Z,1020.78
2018-03-21T04:24:51.739Z,1020.8
2018-03-21T04:25:51.751Z,1020.81
2018-03-21T04:26:51.762Z,1020.78
2018-03-21T04:27:51.774Z,1020.8
2018-03-21T04:28:51.784Z,1020.78
2018-03-21T04:29:51.796Z,1020.81
2018-03-21T04:30:51.808Z,1020.73
2018-03-21T04:31:51.817Z,1020.8
2018-03-21T04:32:51.829Z,1020.76
2018-03-21T04:33:51.845Z,1020.76
2018-03-21T04:34:51.852Z,1020.77
2018-03-21T04:35:51.863Z,1020.75
2018-03-21T04:36:51.874Z,1020.76
2018-03-21T04:37:51.893Z,1020.74
2018-03-21T04:38:51.897Z,1020.72
2018-03-21T04:39:51.907Z,1020.7
2018-03-21T04:41:51.930Z,1020.69
2018-03-21T04:42:51.941Z,1020.68
2018-03-21T04:43:51.951Z,1020.74
2018-03-21T04:44:51.963Z,1020.65
2018-03-21T04:45:51.974Z,1020.71
2018-03-21T04:46:51.986Z,1020.72
2018-03-21T04:47:51.995Z,1020.7
2018-03-21T04:48:52.014Z,1020.7
2018-03-21T04:49:52.019Z,1020.72
2018-03-21T04:50:52.028Z,1020.73
2018-03-21T04:51:52.040Z,1020.74
2018-03-21T04:52:52.051Z,1020.7
2018-03-21T04:53:52.063Z,1020.74
2018-03-21T04:54:52.073Z,1020.71
2018-03-21T04:55:52.086Z,1020.72
2018-03-21T04:57:52.107Z,1020.75
2018-03-21T04:58:52.121Z,1020.72
2018-03-21T04:59:52.130Z,1020.74
2018-03-21T05:00:52.140Z,1020.74
2018-03-21T05:01:52.194Z,1020.75
2018-03-21T05:02:52.168Z,1020.76
2018-03-21T05:03:52.173Z,1020.77
2018-03-21T05:04:52.184Z,1020.76
2018-03-21T05:05:52.193Z,1020.73
2018-03-21T05:06:52.206Z,1020.77
2018-03-21T05:07:52.216Z,1020.79
2018-03-21T05:08:52.229Z,1020.76
2018-03-21T05:09:52.240Z,1020.79
2018-03-21T05:10:52.251Z,1020.77
2018-03-21T05:11:52.262Z,1020.77
2018-03-21T05:13:52.283Z,1020.76
2018-03-21T05:14:52.299Z,1020.79
2018-03-21T05:15:52.306Z,1020.78
2018-03-21T05:16:52.316Z,1020.84
2018-03-21T05:17:52.329Z,1020.84
2018-03-21T05:18:52.339Z,1020.81
2018-03-21T05:19:52.350Z,1020.83
2018-03-21T05:20:52.373Z,1020.83
2018-03-21T05:21:52.376Z,1020.85
2018-03-21T05:22:52.388Z,1020.85
2018-03-21T05:23:52.394Z,1020.84
2018-03-21T05:24:52.405Z,1020.9
2018-03-21T05:25:52.417Z,1020.9
2018-03-21T05:26:52.429Z,1020.91
2018-03-21T05:27:52.438Z,1020.91
2018-03-21T05:29:52.462Z,1020.9
2018-03-21T05:30:52.480Z,1020.93
2018-03-21T05:31:52.484Z,1020.9
2018-03-21T05:32:52.495Z,1020.9
2018-03-21T05:33:52.507Z,1020.92
2018-03-21T05:34:52.518Z,1020.89
2018-03-21T05:35:52.528Z,1020.93
2018-03-21T05:36:52.540Z,1020.96
2018-03-21T05:37:52.552Z,1020.97
2018-03-21T05:38:52.561Z,1021.06
2018-03-21T05:39:52.574Z,1021.08
2018-03-21T05:40:52.586Z,1021
2018-03-21T05:41:52.598Z,1021.02
2018-03-21T05:42:52.611Z,1021.15
2018-03-21T05:44:52.636Z,1021.21
2018-03-21T05:45:52.648Z,1021.25
2018-03-21T05:46:52.671Z,1021.19
2018-03-21T05:47:52.690Z,1021.15
2018-03-21T05:48:52.691Z,1021.18
2018-03-21T05:49:52.703Z,1021.24
2018-03-21T05:50:52.718Z,1021.25
2018-03-21T05:51:52.732Z,1021.26
2018-03-21T05:52:52.751Z,1021.25
2018-03-21T05:53:52.762Z,1021.27
2018-03-21T05:54:52.781Z,1021.24
2018-03-21T05:55:52.793Z,1021.24
2018-03-21T05:56:52.808Z,1021.24
2018-03-21T05:57:52.824Z,1021.25
2018-03-21T05:58:52.841Z,1021.17
2018-03-21T05:59:52.855Z,1020.98
2018-03-21T06:00:52.873Z,1020.95
2018-03-21T06:01:52.890Z,1020.97
2018-03-21T06:02:52.909Z,1020.86
2018-03-21T06:03:52.924Z,1020.79
2018-03-21T06:04:52.941Z,1020.7
2018-03-21T06:05:52.959Z,1020.66
2018-03-21T06:06:52.979Z,1020.56
2018-03-21T06:07:52.996Z,1020.52
2018-03-21T06:08:53.015Z,1020.5
2018-03-21T06:09:53.034Z,1020.41
2018-03-21T06:10:53.054Z,1020.38
2018-03-21T06:11:53.074Z,1020.38
2018-03-21T06:12:53.095Z,1020.43
2018-03-21T06:13:53.117Z,1020.43
2018-03-21T06:14:53.137Z,1020.39
2018-03-21T06:16:53.180Z,1020.47
2018-03-21T06:17:53.208Z,1020.42
2018-03-21T06:18:53.226Z,1020.47
2018-03-21T06:19:53.248Z,1020.47
2018-03-21T06:20:53.321Z,1020.55
2018-03-21T06:21:53.352Z,1020.6
2018-03-21T06:22:53.317Z,1020.66
2018-03-21T06:23:53.346Z,1020.7
2018-03-21T06:24:53.363Z,1020.69
2018-03-21T06:25:53.387Z,1020.81
2018-03-21T06:26:53.412Z,1020.87
2018-03-21T06:27:53.436Z,1020.85
2018-03-21T06:28:53.462Z,1020.98
2018-03-21T06:29:53.485Z,1021.05
2018-03-21T06:30:53.510Z,1021.15
2018-03-21T06:32:53.561Z,1021.26
2018-03-21T06:33:53.587Z,1021.39
2018-03-21T06:34:53.611Z,1021.44
2018-03-21T06:35:53.636Z,1021.56
2018-03-21T06:36:53.660Z,1021.62
2018-03-21T06:37:53.687Z,1021.67
2018-03-21T06:38:53.712Z,1021.73
2018-03-21T06:39:53.737Z,1021.8
2018-03-21T06:40:53.762Z,1021.87
2018-03-21T06:41:53.789Z,1021.91
2018-03-21T06:42:53.816Z,1021.9
2018-03-21T06:43:53.842Z,1021.94
2018-03-21T06:44:53.868Z,1022
2018-03-21T06:45:53.894Z,1022.01
2018-03-21T06:46:53.920Z,1022.05
2018-03-21T06:48:53.973Z,1022.1
2018-03-21T06:49:54.000Z,1022.14
2018-03-21T06:50:54.027Z,1022.14
2018-03-21T06:51:54.054Z,1022.19
2018-03-21T06:52:54.081Z,1022.21
2018-03-21T06:53:54.107Z,1022.26
2018-03-21T06:54:54.136Z,1022.29
2018-03-21T06:55:54.161Z,1022.33
2018-03-21T06:56:54.189Z,1022.32
2018-03-21T06:57:54.216Z,1022.37
2018-03-21T06:58:54.242Z,1022.37
2018-03-21T06:59:54.281Z,1022.41
2018-03-21T07:00:54.300Z,1022.45
2018-03-21T07:01:54.325Z,1022.43
2018-03-21T07:02:54.351Z,1022.39
2018-03-21T07:04:54.408Z,1022.5
2018-03-21T07:05:54.434Z,1022.51
2018-03-21T07:06:54.462Z,1022.55
2018-03-21T07:07:54.490Z,1022.56
2018-03-21T07:08:54.518Z,1022.59
2018-03-21T07:09:54.545Z,1022.61
2018-03-21T07:10:54.573Z,1022.66
2018-03-21T07:11:54.600Z,1022.66
2018-03-21T07:12:54.629Z,1022.69
2018-03-21T07:13:54.662Z,1022.67
2018-03-21T07:14:54.686Z,1022.66
2018-03-21T07:15:54.714Z,1022.66
2018-03-21T07:16:54.743Z,1022.7
2018-03-21T07:17:54.771Z,1022.71
2018-03-21T07:19:54.832Z,1022.74
2018-03-21T07:20:54.855Z,1022.73
2018-03-21T07:21:54.883Z,1022.73
2018-03-21T07:22:54.913Z,1022.7
2018-03-21T07:23:54.940Z,1022.74
2018-03-21T07:24:54.969Z,1022.72
2018-03-21T07:25:54.997Z,1022.73
2018-03-21T07:26:55.025Z,1022.7
2018-03-21T07:27:55.060Z,1022.72
2018-03-21T07:28:55.081Z,1022.64
2018-03-21T07:29:55.108Z,1022.63
2018-03-21T07:30:55.137Z,1022.59
2018-03-21T07:31:55.165Z,1022.58
2018-03-21T07:32:55.194Z,1022.61
2018-03-21T07:33:55.224Z,1022.61
2018-03-21T07:34:55.249Z,1022.67
2018-03-21T07:35:55.277Z,1022.65
2018-03-21T07:36:55.305Z,1022.67
2018-03-21T07:37:55.333Z,1022.69
2018-03-21T07:38:55.360Z,1022.71
2018-03-21T07:39:55.388Z,1022.69
2018-03-21T07:40:55.415Z,1022.65
2018-03-21T07:41:55.443Z,1022.61
2018-03-21T07:42:55.471Z,1022.58
2018-03-21T07:43:55.504Z,1022.53
2018-03-21T07:44:55.525Z,1022.52
2018-03-21T07:45:55.553Z,1022.52
2018-03-21T07:46:55.580Z,1022.45
2018-03-21T07:47:55.611Z,1022.39
2018-03-21T07:48:55.635Z,1022.32
2018-03-21T07:49:55.662Z,1022.32
2018-03-21T07:51:55.717Z,1022.17
2018-03-21T07:52:55.744Z,1022.15
2018-03-21T07:53:55.771Z,1022.13
2018-03-21T07:54:55.798Z,1022.11
2018-03-21T07:55:55.824Z,1022.14
2018-03-21T07:56:55.853Z,1022.08
2018-03-21T07:57:55.878Z,1022.08
2018-03-21T07:58:55.906Z,1022.03
2018-03-21T07:59:55.932Z,1022.07
2018-03-21T08:00:55.959Z,1022.04
2018-03-21T08:01:55.985Z,1022.11
2018-03-21T08:02:56.013Z,1022.1
2018-03-21T08:03:56.040Z,1022.08
2018-03-21T08:04:56.066Z,1022.13
2018-03-21T08:05:56.141Z,1022.07
2018-03-21T08:07:56.144Z,1022.1
2018-03-21T08:08:56.170Z,1022.12
2018-03-21T08:09:56.197Z,1022.05
2018-03-21T08:10:56.223Z,1022.04
2018-03-21T08:11:56.249Z,1022.06
2018-03-21T08:12:56.276Z,1022.09
2018-03-21T08:13:56.302Z,1022.02
2018-03-21T08:14:56.327Z,1022.02
2018-03-21T08:15:56.354Z,1022
2018-03-21T08:16:56.380Z,1022.02
2018-03-21T08:17:56.407Z,1021.96
2018-03-21T08:18:56.430Z,1022.03
2018-03-21T08:19:56.456Z,1022
2018-03-21T08:20:56.483Z,1022.06
2018-03-21T08:21:56.511Z,1022.06
2018-03-21T08:23:56.559Z,1022.03
2018-03-21T08:24:56.585Z,1022.05
2018-03-21T08:25:56.611Z,1022.04
2018-03-21T08:26:56.636Z,1022.06
2018-03-21T08:27:56.677Z,1022.06
2018-03-21T08:28:56.726Z,1022.05
2018-03-21T08:29:56.711Z,1022.04
2018-03-21T08:30:56.736Z,1022.12
2018-03-21T08:31:56.763Z,1022.08
2018-03-21T08:32:56.800Z,1022.13
2018-03-21T08:33:56.812Z,1022.14
2018-03-21T08:34:56.838Z,1022.15
2018-03-21T08:35:56.924Z,1022.07
2018-03-21T08:36:56.889Z,1022.13
2018-03-21T08:37:56.914Z,1022.03
2018-03-21T08:39:56.965Z,1022.07
2018-03-21T08:40:56.993Z,1022.02
2018-03-21T08:41:57.014Z,1022.07
2018-03-21T08:42:57.038Z,1022.08
2018-03-21T08:43:57.066Z,1022.05
2018-03-21T08:44:57.088Z,1022.05
2018-03-21T08:45:57.112Z,1022.07
2018-03-21T08:46:57.139Z,1021.97
2018-03-21T08:47:57.165Z,1022
2018-03-21T08:48:57.189Z,1021.95
2018-03-21T08:49:57.219Z,1021.97
2018-03-21T08:50:57.239Z,1021.93
2018-03-21T08:51:57.263Z,1021.96
2018-03-21T08:52:57.290Z,1022
2018-03-21T08:54:57.343Z,1021.96
2018-03-21T08:55:57.362Z,1021.97
2018-03-21T08:56:57.388Z,1021.92
2018-03-21T08:57:57.412Z,1021.93
2018-03-21T08:58:57.437Z,1021.94
2018-03-21T08:59:57.462Z,1021.91
2018-03-21T09:00:57.488Z,1021.92
2018-03-21T09:01:57.512Z,1021.93
2018-03-21T09:02:57.536Z,1021.9
2018-03-21T09:03:57.560Z,1021.88
2018-03-21T09:04:57.585Z,1021.9
2018-03-21T09:05:57.611Z,1021.86
2018-03-21T09:06:57.634Z,1021.84
2018-03-21T09:07:57.659Z,1021.79
2018-03-21T09:08:57.687Z,1021.78
2018-03-21T09:09:57.709Z,1021.82
2018-03-21T09:10:57.733Z,1021.81
2018-03-21T09:11:57.763Z,1021.8
2018-03-21T09:12:57.784Z,1021.78
2018-03-21T09:13:57.806Z,1021.87
2018-03-21T09:14:57.830Z,1021.81
2018-03-21T09:15:57.855Z,1021.82
2018-03-21T09:16:57.879Z,1021.81
2018-03-21T09:17:57.907Z,1021.8
2018-03-21T09:18:57.927Z,1021.82
2018-03-21T09:19:57.955Z,1021.79
2018-03-21T09:20:57.977Z,1021.78
2018-03-21T09:21:58.001Z,1021.76
2018-03-21T09:22:58.025Z,1021.79
2018-03-21T09:23:58.050Z,1021.77
2018-03-21T09:24:58.136Z,1021.79
2018-03-21T09:26:58.121Z,1021.72
2018-03-21T09:27:58.147Z,1021.74
2018-03-21T09:28:58.170Z,1021.66
2018-03-21T09:29:58.195Z,1021.65
2018-03-21T09:30:58.218Z,1021.71
2018-03-21T09:31:58.287Z,1021.66
2018-03-21T09:32:58.266Z,1021.61
2018-03-21T09:33:58.290Z,1021.64
2018-03-21T09:34:58.319Z,1021.63
2018-03-21T09:35:58.338Z,1021.64
2018-03-21T09:36:58.362Z,1021.64
2018-03-21T09:37:58.389Z,1021.66
2018-03-21T09:38:58.410Z,1021.62
2018-03-21T09:39:58.433Z,1021.64
2018-03-21T09:40:58.487Z,1021.67
2018-03-21T09:42:58.505Z,1021.67
2018-03-21T09:43:58.528Z,1021.65
2018-03-21T09:44:58.552Z,1021.61
2018-03-21T09:45:58.576Z,1021.62
2018-03-21T09:46:58.599Z,1021.6
2018-03-21T09:47:58.622Z,1021.62
2018-03-21T09:48:58.647Z,1021.6
2018-03-21T09:49:58.671Z,1021.59
2018-03-21T09:50:58.694Z,1021.56
2018-03-21T09:51:58.724Z,1021.61
2018-03-21T09:52:58.741Z,1021.57
2018-03-21T09:53:58.765Z,1021.58
2018-03-21T09:54:58.791Z,1021.51
2018-03-21T09:55:58.812Z,1021.48
2018-03-21T09:56:58.837Z,1021.49
2018-03-21T09:58:58.883Z,1021.45
2018-03-21T09:59:58.908Z,1021.47
2018-03-21T10:00:58.931Z,1021.49
2018-03-21T10:01:58.954Z,1021.44
2018-03-21T10:02:58.978Z,1021.49
2018-03-21T10:03:59.002Z,1021.47
2018-03-21T10:04:59.025Z,1021.47
2018-03-21T10:05:59.048Z,1021.44
2018-03-21T10:06:59.072Z,1021.43
2018-03-21T10:07:59.096Z,1021.41
2018-03-21T10:08:59.118Z,1021.44
2018-03-21T10:09:59.142Z,1021.4
2018-03-21T10:10:59.165Z,1021.37
2018-03-21T10:11:59.189Z,1021.4
2018-03-21T10:12:59.212Z,1021.36
2018-03-21T10:14:59.258Z,1021.34
2018-03-21T10:15:59.285Z,1021.33
2018-03-21T10:16:59.304Z,1021.34
2018-03-21T10:17:59.328Z,1021.32
2018-03-21T10:18:59.351Z,1021.31
2018-03-21T10:19:59.373Z,1021.26
2018-03-21T10:20:59.396Z,1021.35
2018-03-21T10:21:59.420Z,1021.26
2018-03-21T10:22:59.442Z,1021.31
2018-03-21T10:23:59.465Z,1021.31
2018-03-21T10:24:59.488Z,1021.27
2018-03-21T10:25:59.512Z,1021.3
2018-03-21T10:26:59.533Z,1021.29
2018-03-21T10:27:59.557Z,1021.3
2018-03-21T10:29:59.603Z,1021.3
2018-03-21T10:30:59.625Z,1021.33
2018-03-21T10:31:59.649Z,1021.28
2018-03-21T10:32:59.672Z,1021.26
2018-03-21T10:33:59.696Z,1021.26
2018-03-21T10:34:59.716Z,1021.27
2018-03-21T10:35:59.738Z,1021.31
2018-03-21T10:36:59.762Z,1021.3
2018-03-21T10:37:59.782Z,1021.22
2018-03-21T10:38:59.806Z,1021.24
2018-03-21T10:39:59.828Z,1021.19
2018-03-21T10:40:59.850Z,1021.17
2018-03-21T10:41:59.873Z,1021.23
2018-03-21T10:42:59.894Z,1021.22
2018-03-21T10:43:59.922Z,1021.18
2018-03-21T10:44:59.955Z,1021.21
2018-03-21T10:45:59.960Z,1021.21
2018-03-21T10:46:59.981Z,1021.12
2018-03-21T10:48:00.005Z,1021.26
2018-03-21T10:49:00.025Z,1021.19
2018-03-21T10:50:00.051Z,1021.14
2018-03-21T10:51:00.069Z,1021.2
2018-03-21T10:52:00.091Z,1021.14
2018-03-21T10:53:00.112Z,1021.15
2018-03-21T10:54:00.133Z,1021.16
2018-03-21T10:55:00.155Z,1021.18
2018-03-21T10:56:00.176Z,1021.19
2018-03-21T10:57:00.197Z,1021.21
2018-03-21T10:58:00.222Z,1021.17
2018-03-21T10:59:00.242Z,1021.16
2018-03-21T11:00:00.261Z,1021.23
2018-03-21T11:02:00.322Z,1021.2
2018-03-21T11:03:00.325Z,1021.2
2018-03-21T11:04:00.345Z,1021.16
2018-03-21T11:05:00.377Z,1021.15
2018-03-21T11:06:00.389Z,1021.14
2018-03-21T11:07:00.411Z,1021.13
2018-03-21T11:08:00.428Z,1021.13
2018-03-21T11:09:00.449Z,1021.1
2018-03-21T11:10:00.469Z,1021.2
2018-03-21T11:11:00.496Z,1021.16
2018-03-21T11:12:00.511Z,1021.14
2018-03-21T11:13:00.532Z,1021.13
2018-03-21T11:14:00.553Z,1021.1
2018-03-21T11:15:00.573Z,1021.09
2018-03-21T11:16:00.594Z,1021.16
2018-03-21T11:18:00.634Z,1021.11
2018-03-21T11:19:00.656Z,1021.12
2018-03-21T11:20:00.675Z,1020.99
2018-03-21T11:21:00.695Z,1021.05
2018-03-21T11:22:00.715Z,1021.02
2018-03-21T11:23:00.736Z,1021.06
2018-03-21T11:24:00.756Z,1021.09
2018-03-21T11:25:00.777Z,1021.09
2018-03-21T11:26:00.800Z,1021.05
2018-03-21T11:27:00.816Z,1021.08
2018-03-21T11:28:00.844Z,1021.1
2018-03-21T11:29:00.857Z,1021.09
2018-03-21T11:30:00.882Z,1021.09
2018-03-21T11:31:00.897Z,1021.06
2018-03-21T11:32:00.918Z,1021.07
2018-03-21T11:34:00.958Z,1021.11
2018-03-21T11:35:00.978Z,1021.08
2018-03-21T11:36:00.998Z,1021.08
2018-03-21T11:37:01.018Z,1021.08
2018-03-21T11:38:01.038Z,1021.04
2018-03-21T11:39:01.131Z,1021
2018-03-21T11:40:01.079Z,1021.06
2018-03-21T11:41:01.098Z,1021.05
2018-03-21T11:42:01.119Z,1021.06
2018-03-21T11:43:01.139Z,1021.01
2018-03-21T11:44:01.159Z,1020.95
2018-03-21T11:45:01.207Z,1020.97
2018-03-21T11:46:01.199Z,1020.95
2018-03-21T11:47:01.220Z,1020.93
2018-03-21T11:48:01.239Z,1020.87
2018-03-21T11:50:01.280Z,1020.97
2018-03-21T11:51:01.300Z,1021.02
2018-03-21T11:52:01.319Z,1020.93
2018-03-21T11:53:01.440Z,1020.94
2018-03-21T11:54:01.360Z,1020.95
2018-03-21T11:55:01.379Z,1020.94
2018-03-21T11:56:01.400Z,1020.91
2018-03-21T11:57:01.419Z,1020.88
2018-03-21T11:58:01.440Z,1020.93
2018-03-21T11:59:01.466Z,1020.91
2018-03-21T12:00:01.479Z,1020.9
2018-03-21T12:01:01.500Z,1020.87
2018-03-21T12:02:01.542Z,1020.86
2018-03-21T12:03:01.540Z,1020.8
2018-03-21T12:05:01.581Z,1020.82
2018-03-21T12:06:01.599Z,1020.86
2018-03-21T12:07:01.620Z,1020.92
2018-03-21T12:08:01.638Z,1020.87
2018-03-21T12:09:01.659Z,1020.88
2018-03-21T12:10:01.679Z,1020.86
2018-03-21T12:11:01.699Z,1020.84
2018-03-21T12:12:01.718Z,1020.81
2018-03-21T12:13:01.738Z,1020.77
2018-03-21T12:14:01.758Z,1020.68
2018-03-21T12:15:01.780Z,1020.71
2018-03-21T12:16:01.800Z,1020.8
2018-03-21T12:17:01.818Z,1020.71
2018-03-21T12:18:01.838Z,1020.76
2018-03-21T12:19:01.858Z,1020.78
2018-03-21T12:20:01.878Z,1020.78
2018-03-21T12:21:01.897Z,1020.76
2018-03-21T12:22:01.918Z,1020.75
2018-03-21T12:23:01.938Z,1020.73
2018-03-21T12:24:01.959Z,1020.72
2018-03-21T12:25:01.978Z,1020.66
2018-03-21T12:26:01.998Z,1020.66
2018-03-21T12:27:02.025Z,1020.68
2018-03-21T12:28:02.036Z,1020.7
2018-03-21T12:29:02.057Z,1020.64
2018-03-21T12:30:02.077Z,1020.54
2018-03-21T12:31:02.096Z,1020.58
2018-03-21T12:32:02.115Z,1020.55
2018-03-21T12:33:02.141Z,1020.48
2018-03-21T12:34:02.156Z,1020.46
2018-03-21T12:35:02.176Z,1020.49
2018-03-21T12:37:02.215Z,1020.48
2018-03-21T12:38:02.236Z,1020.46
2018-03-21T12:39:02.254Z,1020.49
2018-03-21T12:40:02.274Z,1020.42
2018-03-21T12:41:02.294Z,1020.43
2018-03-21T12:42:02.314Z,1020.44
2018-03-21T12:43:02.333Z,1020.42
2018-03-21T12:44:02.354Z,1020.45
2018-03-21T12:45:02.374Z,1020.53
2018-03-21T12:46:02.391Z,1020.44
2018-03-21T12:47:02.413Z,1020.49
2018-03-21T12:48:02.432Z,1020.47
2018-03-21T12:49:02.453Z,1020.47
2018-03-21T12:50:02.557Z,1020.55